createdAt,value
2018-07-10T00:02:33.875Z,102098.18
2018-07-10T00:07:16.887Z,102105.47
2018-07-10T00:09:56.554Z,102112.55
2018-07-10T00:12:25.245Z,102119.73
2018-07-10T00:14:53.873Z,102121.30
2018-07-10T00:17:22.547Z,102120.20
2018-07-10T00:19:51.212Z,102126.05
2018-07-10T00:22:19.902Z,102123.15
2018-07-10T00:24:48.688Z,102129.84
2018-07-10T00:27:17.282Z,102133.97
2018-07-10T00:29:45.893Z,102123.98
2018-07-10T00:32:14.626Z,102124.36
2018-07-10T00:34:43.212Z,102126.55
2018-07-10T00:37:11.851Z,102128.48
2018-07-10T00:39:40.650Z,102128.27
2018-07-10T00:42:09.903Z,102132.14
2018-07-10T00:44:38.749Z,102127.53
2018-07-10T00:47:07.430Z,102124.13
2018-07-10T00:49:36.125Z,102126.92
2018-07-10T00:52:04.781Z,102132.86
2018-07-10T00:54:33.444Z,102120.72
2018-07-10T00:57:02.397Z,102130.42
2018-07-10T00:59:31.088Z,102126.64
2018-07-10T01:01:59.672Z,102125.30
2018-07-10T01:04:28.537Z,102129.31
2018-07-10T01:06:57.246Z,102135.25
2018-07-10T01:09:25.922Z,102137.33
2018-07-10T01:11:54.579Z,102141.56
2018-07-10T01:14:23.297Z,102137.81
2018-07-10T01:16:51.957Z,102135.84
2018-07-10T01:19:20.613Z,102137.55
2018-07-10T01:21:49.367Z,102134.73
2018-07-10T01:24:18.862Z,102133.28
2018-07-10T01:26:49.088Z,102140.08
2018-07-10T01:29:23.134Z,102144.23
2018-07-10T01:31:53.834Z,102140.34
2018-07-10T01:34:22.851Z,102156.00
2018-07-10T01:36:52.265Z,102144.72
2018-07-10T01:39:20.935Z,102146.65
2018-07-10T01:41:49.590Z,102145.31
2018-07-10T01:44:18.305Z,102151.25
2018-07-10T01:46:46.972Z,102148.09
2018-07-10T01:49:15.704Z,102151.62
2018-07-10T01:51:44.455Z,102151.99
2018-07-10T01:54:13.322Z,102159.37
2018-07-10T01:56:42.021Z,102150.88
2018-07-10T01:59:10.745Z,102159.11
2018-07-10T02:01:39.352Z,102156.53
2018-07-10T02:04:08.147Z,102158.25
2018-07-10T02:06:36.785Z,102156.41
2018-07-10T02:09:05.824Z,102033.47
2018-07-10T02:11:34.539Z,102158.33
2018-07-10T02:14:03.283Z,102155.02
2018-07-10T02:16:32.021Z,102157.57
2018-07-10T02:19:00.780Z,102159.75
2018-07-10T02:21:29.707Z,102167.14
2018-07-10T02:23:58.376Z,102157.66
2018-07-10T02:26:28.034Z,102162.05
2018-07-10T02:28:57.257Z,102160.71
2018-07-10T02:34:56.846Z,102165.20
2018-07-10T02:37:25.535Z,102162.74
2018-07-10T02:39:54.195Z,102164.82
2018-07-10T02:42:23.384Z,102166.64
2018-07-10T02:44:52.060Z,102168.33
2018-07-10T02:47:21.075Z,102160.53
2018-07-10T02:49:49.869Z,102164.43
2018-07-10T02:52:18.582Z,102171.38
2018-07-10T02:54:47.236Z,102171.22
2018-07-10T02:57:16.004Z,102167.09
2018-07-10T02:59:46.113Z,102166.73
2018-07-10T03:02:22.792Z,102175.97
2018-07-10T03:05:05.807Z,102179.49
2018-07-10T03:07:36.761Z,102175.72
2018-07-10T03:10:05.437Z,102172.84
2018-07-10T03:12:36.120Z,102179.99
2018-07-10T03:15:07.781Z,102184.27
2018-07-10T03:17:36.501Z,102183.04
2018-07-10T03:20:05.909Z,102184.38
2018-07-10T03:22:34.633Z,102184.64
2018-07-10T03:25:03.566Z,102183.67
2018-07-10T03:27:32.330Z,102181.83
2018-07-10T03:30:01.824Z,102187.80
2018-07-10T03:32:30.812Z,102187.06
2018-07-10T03:34:59.439Z,102187.81
2018-07-10T03:37:28.616Z,102190.27
2018-07-10T03:39:57.292Z,102191.24
2018-07-10T03:42:27.387Z,102186.76
2018-07-10T03:44:56.610Z,102192.75
2018-07-10T03:47:26.543Z,102190.09
2018-07-10T03:49:55.256Z,102194.11
2018-07-10T03:52:32.153Z,102203.48
2018-07-10T03:55:07.523Z,102193.16
2018-07-10T03:57:36.291Z,102196.70
2018-07-10T04:00:09.186Z,102196.48
2018-07-10T04:02:53.983Z,102201.83
2018-07-10T04:05:23.811Z,102200.65
2018-07-10T04:07:54.023Z,102195.82
2018-07-10T04:10:26.530Z,102200.20
2018-07-10T04:12:55.992Z,102203.99
2018-07-10T04:15:24.679Z,102217.11
2018-07-10T04:18:04.761Z,102214.33
2018-07-10T04:20:48.681Z,102215.92
2018-07-10T04:23:17.331Z,102214.69
2018-07-10T04:25:50.808Z,102211.20
2018-07-10T04:28:24.481Z,102212.98
2018-07-10T04:31:13.370Z,102207.19
2018-07-10T04:33:42.990Z,102213.27
2018-07-10T04:36:11.601Z,102220.93
2018-07-10T04:38:40.580Z,102216.77
2018-07-10T04:41:14.666Z,102217.37
2018-07-10T04:43:48.507Z,102214.47
2018-07-10T04:46:17.209Z,102224.09
2018-07-10T04:48:47.323Z,102225.94
2018-07-10T04:51:32.829Z,102219.34
2018-07-10T04:54:25.329Z,102223.60
2018-07-10T04:57:00.601Z,102223.47
2018-07-10T04:59:29.311Z,102221.41
2018-07-10T05:01:57.957Z,102218.23
2018-07-10T05:04:26.550Z,102210.95
2018-07-10T05:06:55.274Z,102218.48
2018-07-10T05:09:24.061Z,102226.77
2018-07-10T05:11:52.693Z,102223.35
2018-07-10T05:14:21.497Z,102225.05
2018-07-10T05:16:50.174Z,102220.07
2018-07-10T05:19:18.926Z,102221.55
2018-07-10T05:21:47.607Z,102225.05
2018-07-10T05:24:16.385Z,102222.14
2018-07-10T05:26:45.272Z,102226.75
2018-07-10T05:29:14.452Z,102226.64
2018-07-10T05:31:43.184Z,102226.64
2018-07-10T05:34:11.793Z,102231.14
2018-07-10T05:36:40.380Z,102237.95
2018-07-10T05:39:09.532Z,102235.52
2018-07-10T05:41:43.762Z,102237.60
2018-07-10T05:44:16.785Z,102240.88
2018-07-10T05:46:45.503Z,102239.54
2018-07-10T05:49:14.279Z,102245.77
2018-07-10T05:51:44.891Z,102247.33
2018-07-10T05:54:13.755Z,102252.55
2018-07-10T05:56:42.495Z,102251.09
2018-07-10T05:59:11.081Z,102253.03
2018-07-10T06:01:40.526Z,102255.72
2018-07-10T06:04:11.339Z,102255.22
2018-07-10T06:06:40.043Z,102252.52
2018-07-10T06:09:09.223Z,102251.00
2018-07-10T06:11:37.921Z,102253.91
2018-07-10T06:14:06.729Z,102261.68
2018-07-10T06:16:36.858Z,102258.23
2018-07-10T06:19:05.726Z,102264.42
2018-07-10T06:21:37.504Z,102260.85
2018-07-10T06:24:11.281Z,102263.13
2018-07-10T06:26:41.365Z,102255.41
2018-07-10T06:29:10.619Z,102255.25
2018-07-10T06:31:47.862Z,102257.27
2018-07-10T06:34:16.536Z,102256.56
2018-07-10T06:37:03.385Z,102254.80
2018-07-10T06:39:32.243Z,102253.95
2018-07-10T06:42:08.924Z,102261.52
2018-07-10T06:44:38.326Z,102262.79
2018-07-10T06:47:41.184Z,102262.68
2018-07-10T06:50:09.938Z,102256.70
2018-07-10T06:52:41.385Z,102255.83
2018-07-10T06:55:14.014Z,102247.08
2018-07-10T06:57:55.015Z,102252.34
2018-07-10T07:00:24.642Z,102244.18
2018-07-10T07:02:53.328Z,102247.75
2018-07-10T07:05:21.943Z,102250.50
2018-07-10T07:07:50.655Z,102251.56
2018-07-10T07:10:19.303Z,102245.04
2018-07-10T07:12:47.929Z,102238.92
2018-07-10T07:15:20.664Z,102242.81
2018-07-10T07:17:50.190Z,102236.77
2018-07-10T07:20:19.879Z,102236.70
2018-07-10T07:22:48.640Z,102233.98
2018-07-10T07:25:17.330Z,102241.46
2018-07-10T07:27:45.969Z,102242.55
2018-07-10T07:30:14.574Z,102242.83
2018-07-10T07:32:43.522Z,102242.95
2018-07-10T07:35:12.127Z,102250.31
2018-07-10T07:37:41.853Z,102252.98
2018-07-10T07:40:11.817Z,102252.02
2018-07-10T07:42:41.106Z,102252.10
2018-07-10T07:45:10.138Z,102256.34
2018-07-10T07:47:38.790Z,102254.86
2018-07-10T07:50:07.498Z,102253.06
2018-07-10T07:52:36.197Z,102262.89
2018-07-10T07:55:04.913Z,102253.94
2018-07-10T07:57:33.680Z,102260.73
2018-07-10T08:00:02.373Z,102265.28
2018-07-10T08:02:30.952Z,102257.03
2018-07-10T08:04:59.653Z,102256.69
2018-07-10T08:07:28.429Z,102252.13
2018-07-10T08:09:58.012Z,102250.09
2018-07-10T08:12:28.753Z,102254.14
2018-07-10T08:14:57.776Z,102248.08
2018-07-10T08:17:26.633Z,102245.36
2018-07-10T08:19:56.990Z,102248.58
2018-07-10T08:22:26.357Z,102242.84
2018-07-10T08:24:55.302Z,102238.77
2018-07-10T08:27:24.485Z,102244.83
2018-07-10T08:29:53.630Z,102243.95
2018-07-10T08:32:22.365Z,102243.73
2018-07-10T08:34:50.951Z,102243.72
2018-07-10T08:37:19.611Z,102240.58
2018-07-10T08:39:48.291Z,102237.07
2018-07-10T08:42:16.930Z,102234.73
2018-07-10T08:44:45.672Z,102238.53
2018-07-10T08:47:14.458Z,102243.35
2018-07-10T08:49:43.198Z,102240.48
2018-07-10T08:52:13.044Z,102238.16
2018-07-10T08:54:41.773Z,102236.06
2018-07-10T08:57:10.646Z,102241.92
2018-07-10T08:59:39.902Z,102242.22
2018-07-10T09:02:08.591Z,102232.77
2018-07-10T09:04:37.275Z,102234.30
2018-07-10T09:07:06.419Z,102237.86
2018-07-10T09:09:35.073Z,102232.33
2018-07-10T09:12:03.905Z,102237.32
2018-07-10T09:14:32.535Z,102233.35
2018-07-10T09:17:01.115Z,102233.13
2018-07-10T09:19:31.026Z,102234.24
2018-07-10T09:22:03.636Z,102238.51
2018-07-10T09:24:33.511Z,102233.37
2018-07-10T09:27:03.234Z,102234.48
2018-07-10T09:29:31.899Z,102237.88
2018-07-10T09:32:00.620Z,102239.34
2018-07-10T09:34:29.312Z,102230.02
2018-07-10T09:36:57.897Z,102231.20
2018-07-10T09:39:27.385Z,102225.25
2018-07-10T09:41:56.845Z,102225.75
2018-07-10T09:44:26.153Z,102229.63
2018-07-10T09:46:54.848Z,102227.92
2018-07-10T09:49:23.542Z,102226.52
2018-07-10T09:51:52.361Z,102227.05
2018-07-10T09:54:21.015Z,102232.33
2018-07-10T09:56:49.626Z,102228.48
2018-07-10T09:59:18.389Z,102224.48
2018-07-10T10:01:47.493Z,102225.48
2018-07-10T10:04:16.113Z,102233.06
2018-07-10T10:06:44.786Z,102229.18
2018-07-10T10:09:13.482Z,102231.72
2018-07-10T10:11:42.185Z,102234.98
2018-07-10T10:14:10.898Z,102229.45
2018-07-10T10:16:39.642Z,102229.84
2018-07-10T10:19:08.600Z,102227.19
2018-07-10T10:21:37.280Z,102218.97
2018-07-10T10:24:06.046Z,102228.70
2018-07-10T10:26:34.963Z,102230.13
2018-07-10T10:29:03.610Z,102228.31
2018-07-10T10:31:32.398Z,102220.00
2018-07-10T10:34:01.188Z,102223.89
2018-07-10T10:36:29.847Z,102227.56
2018-07-10T10:38:58.481Z,102221.02
2018-07-10T10:41:27.156Z,102227.92
2018-07-10T10:43:55.831Z,102230.13
2018-07-10T10:46:24.484Z,102227.63
2018-07-10T10:48:53.405Z,102223.66
2018-07-10T10:51:23.141Z,102222.92
2018-07-10T10:53:52.261Z,102225.88
2018-07-10T10:56:20.928Z,102219.22
2018-07-10T10:58:49.802Z,102222.41
2018-07-10T11:01:18.612Z,102227.88
2018-07-10T11:03:47.305Z,102222.02
2018-07-10T11:06:16.057Z,102219.09
2018-07-10T11:08:44.720Z,102221.68
2018-07-10T11:11:13.430Z,102221.31
2018-07-10T11:13:42.197Z,102212.62
2018-07-10T11:16:10.871Z,102215.61
2018-07-10T11:18:51.731Z,102214.49
2018-07-10T11:21:27.838Z,102209.20
2018-07-10T11:23:58.639Z,102212.07
2018-07-10T11:26:35.223Z,102208.16
2018-07-10T11:29:05.140Z,102211.04
2018-07-10T11:31:33.885Z,102215.60
2018-07-10T11:34:02.580Z,102215.67
2018-07-10T11:36:31.255Z,102204.52
2018-07-10T11:39:06.508Z,102212.01
2018-07-10T11:41:38.954Z,102205.31
2018-07-10T11:44:08.957Z,102204.64
2018-07-10T11:46:38.144Z,102207.14
2018-07-10T11:49:06.788Z,102208.44
2018-07-10T11:51:35.621Z,102208.30
2018-07-10T11:54:04.645Z,102201.12
2018-07-10T11:56:34.537Z,102207.06
2018-07-10T11:59:03.744Z,102205.60
2018-07-10T12:01:33.738Z,102200.85
2018-07-10T12:04:02.636Z,102198.07
2018-07-10T12:06:31.683Z,102200.63
2018-07-10T12:09:00.702Z,102199.10
2018-07-10T12:11:31.404Z,102197.89
2018-07-10T12:14:00.161Z,102205.58
2018-07-10T12:16:28.856Z,102200.95
2018-07-10T12:18:57.485Z,102200.33
2018-07-10T12:21:26.170Z,102189.45
2018-07-10T12:23:54.839Z,102193.00
2018-07-10T12:26:23.516Z,102194.69
2018-07-10T12:28:52.471Z,102197.81
2018-07-10T12:31:21.157Z,102193.73
2018-07-10T12:33:49.971Z,102185.77
2018-07-10T12:36:18.592Z,102193.92
2018-07-10T12:38:47.269Z,102193.84
2018-07-10T12:41:16.115Z,102194.08
2018-07-10T12:43:44.749Z,102190.29
2018-07-10T12:46:13.558Z,102192.99
2018-07-10T12:48:42.252Z,102196.81
2018-07-10T12:51:11.193Z,102194.09
2018-07-10T12:53:40.076Z,102191.09
2018-07-10T12:56:08.800Z,102191.53
2018-07-10T12:58:41.153Z,102190.86
2018-07-10T13:01:10.149Z,102195.94
2018-07-10T13:03:38.935Z,102201.65
2018-07-10T13:06:07.596Z,102198.17
2018-07-10T13:08:36.288Z,102199.42
2018-07-10T13:11:04.960Z,102192.08
2018-07-10T13:13:33.710Z,102194.40
2018-07-10T13:16:02.440Z,102191.95
2018-07-10T13:18:33.174Z,102194.41
2018-07-10T13:21:01.739Z,102196.09
2018-07-10T13:23:30.455Z,102191.35
2018-07-10T13:25:59.083Z,102192.28
2018-07-10T13:28:27.947Z,102185.73
2018-07-10T13:30:56.589Z,102198.78
2018-07-10T13:33:25.214Z,102183.42
2018-07-10T13:35:53.888Z,102188.89
2018-07-10T13:38:23.190Z,102186.40
2018-07-10T13:40:54.115Z,102183.04
2018-07-10T13:43:22.768Z,102184.30
2018-07-10T13:45:51.387Z,102188.38
2018-07-10T13:48:20.131Z,102185.97
2018-07-10T13:50:48.771Z,102179.03
2018-07-10T13:53:17.421Z,102179.47
2018-07-10T13:55:46.125Z,102184.12
2018-07-10T13:58:20.167Z,102182.68
2018-07-10T14:00:51.244Z,102180.78
2018-07-10T14:03:19.914Z,102173.02
2018-07-10T14:05:48.567Z,102173.45
2018-07-10T14:08:17.234Z,102176.72
2018-07-10T14:10:45.933Z,102170.67
2018-07-10T14:13:14.632Z,102167.79
2018-07-10T14:15:43.318Z,102165.45
2018-07-10T14:18:12.127Z,102166.40
2018-07-10T14:20:48.964Z,102161.62
2018-07-10T14:23:17.673Z,102167.48
2018-07-10T14:29:17.413Z,102168.14
2018-07-10T14:31:46.061Z,102160.66
2018-07-10T14:34:14.668Z,102155.61
2018-07-10T14:36:43.390Z,102161.09
2018-07-10T14:39:12.224Z,102161.20
2018-07-10T14:41:40.895Z,102164.88
2018-07-10T14:44:10.784Z,102166.72
2018-07-10T14:46:39.390Z,102160.23
2018-07-10T14:49:08.244Z,102161.17
2018-07-10T14:51:42.711Z,102157.05
2018-07-10T14:54:11.840Z,102163.95
2018-07-10T14:56:40.946Z,102154.02
2018-07-10T14:59:09.941Z,102160.81
2018-07-10T15:01:39.438Z,102159.73
2018-07-10T15:04:08.314Z,102157.56
2018-07-10T15:06:37.614Z,102160.38
2018-07-10T15:09:07.603Z,102158.20
2018-07-10T15:11:36.876Z,102160.28
2018-07-10T15:14:07.185Z,102154.73
2018-07-10T15:16:41.527Z,102155.09
2018-07-10T15:19:10.284Z,102146.44
2018-07-10T15:21:39.077Z,102155.80
2018-07-10T15:24:08.739Z,102153.11
2018-07-10T15:26:37.368Z,102152.34
2018-07-10T15:29:06.028Z,102148.28
2018-07-10T15:31:34.754Z,102147.09
2018-07-10T15:34:03.459Z,102146.64
2018-07-10T15:36:32.215Z,102146.98
2018-07-10T15:39:01.001Z,102142.36
2018-07-10T15:41:31.301Z,102148.58
2018-07-10T15:43:59.894Z,102149.19
2018-07-10T15:46:28.735Z,102141.97
2018-07-10T15:48:57.469Z,102142.30
2018-07-10T15:51:26.176Z,102139.77
2018-07-10T15:53:54.954Z,102136.80
2018-07-10T15:56:23.782Z,102140.36
2018-07-10T15:58:52.444Z,102134.84
2018-07-10T16:01:21.169Z,102137.12
2018-07-10T16:03:49.860Z,102132.80
2018-07-10T16:06:18.767Z,102136.94
2018-07-10T16:08:47.391Z,102141.28
2018-07-10T16:11:16.055Z,102136.15
2018-07-10T16:13:45.108Z,102133.56
2018-07-10T16:16:16.561Z,102142.34
2018-07-10T16:18:54.766Z,102141.72
2018-07-10T16:21:25.930Z,102145.80
2018-07-10T16:23:54.788Z,102132.59
2018-07-10T16:26:24.219Z,102142.56
2018-07-10T16:28:52.837Z,102137.66
2018-07-10T16:31:22.348Z,102133.12
2018-07-10T16:33:51.001Z,102136.66
2018-07-10T16:36:19.934Z,102135.52
2018-07-10T16:38:49.370Z,102138.04
2018-07-10T16:41:23.581Z,102129.59
2018-07-10T16:43:53.972Z,102138.93
2018-07-10T16:46:27.669Z,102137.23
2018-07-10T16:49:03.970Z,102139.41
2018-07-10T16:51:39.156Z,102134.66
2018-07-10T16:54:07.786Z,102131.66
2018-07-10T16:56:36.600Z,102134.34
2018-07-10T16:59:05.565Z,102133.52
2018-07-10T17:01:34.195Z,102132.83
2018-07-10T17:04:04.528Z,102133.16
2018-07-10T17:06:33.154Z,102138.09
2018-07-10T17:09:01.837Z,102131.16
2018-07-10T17:11:30.435Z,102140.20
2018-07-10T17:13:59.132Z,102143.06
2018-07-10T17:16:27.842Z,102141.41
2018-07-10T17:18:56.960Z,102144.77
2018-07-10T17:21:26.598Z,102139.66
2018-07-10T17:23:56.170Z,102142.86
2018-07-10T17:26:24.859Z,102148.95
2018-07-10T17:28:54.178Z,102150.17
2018-07-10T17:31:22.938Z,102144.95
2018-07-10T17:33:51.600Z,102148.47
2018-07-10T17:36:20.267Z,102149.67
2018-07-10T17:38:49.576Z,102152.21
2018-07-10T17:41:18.257Z,102148.29
2018-07-10T17:43:46.992Z,102154.89
2018-07-10T17:46:16.086Z,102148.95
2018-07-10T17:48:44.753Z,102155.50
2018-07-10T17:51:13.934Z,102159.86
2018-07-10T17:53:42.725Z,102155.69
2018-07-10T17:56:11.303Z,102160.59
2018-07-10T17:58:40.099Z,102160.33
2018-07-10T18:01:09.103Z,102151.84
2018-07-10T18:03:38.415Z,102157.40
2018-07-10T18:06:07.696Z,102153.19
2018-07-10T18:08:36.824Z,102152.84
2018-07-10T18:11:05.506Z,102156.35
2018-07-10T18:13:34.273Z,102160.60
2018-07-10T18:16:03.104Z,102161.10
2018-07-10T18:18:32.078Z,102154.84
2018-07-10T18:21:01.008Z,102162.72
2018-07-10T18:23:29.982Z,102155.11
2018-07-10T18:25:58.558Z,102151.11
2018-07-10T18:28:27.155Z,102156.89
2018-07-10T18:30:55.844Z,102154.55
2018-07-10T18:33:24.619Z,102153.19
2018-07-10T18:35:53.600Z,102152.30
2018-07-10T18:38:22.252Z,102149.91
2018-07-10T18:40:51.634Z,102151.21
2018-07-10T18:43:20.454Z,102151.09
2018-07-10T18:45:49.159Z,102156.66
2018-07-10T18:48:23.983Z,102157.36
2018-07-10T18:50:52.718Z,102158.66
2018-07-10T18:53:21.395Z,102164.06
2018-07-10T18:55:51.105Z,102159.80
2018-07-10T18:58:29.979Z,102155.60
2018-07-10T19:01:09.123Z,102158.10
2018-07-10T19:03:38.107Z,102157.20
2018-07-10T19:06:12.160Z,102157.99
2018-07-10T19:08:44.133Z,102160.83
2018-07-10T19:11:17.281Z,102157.34
2018-07-10T19:13:46.465Z,102152.73
2018-07-10T19:16:15.693Z,102155.73
2018-07-10T19:18:44.527Z,102147.07
2018-07-10T19:21:32.124Z,102152.45
2018-07-10T19:24:05.077Z,102154.43
2018-07-10T19:26:35.165Z,102154.56
2018-07-10T19:29:15.197Z,102154.48
2018-07-10T19:31:44.287Z,102152.06
2018-07-10T19:34:13.486Z,102151.78
2018-07-10T19:36:42.428Z,102153.39
2018-07-10T19:39:11.794Z,102156.03
2018-07-10T19:41:40.498Z,102152.92
2018-07-10T19:44:09.235Z,102153.89
2018-07-10T19:46:38.792Z,102153.09
2018-07-10T19:49:08.415Z,102153.70
2018-07-10T19:51:39.483Z,102147.38
2018-07-10T19:54:12.038Z,102154.08
2018-07-10T19:56:41.118Z,102153.34
2018-07-10T19:59:12.099Z,102155.28
2018-07-10T20:01:52.651Z,102159.97
2018-07-10T20:04:35.319Z,102164.47
2018-07-10T20:07:26.302Z,102163.66
2018-07-10T20:10:03.730Z,102165.20
2018-07-10T20:12:43.275Z,102170.02
2018-07-10T20:15:21.857Z,102170.13
2018-07-10T20:17:59.757Z,102171.35
2018-07-10T20:20:30.812Z,102163.16
2018-07-10T20:23:20.463Z,102166.16
2018-07-10T20:26:13.599Z,102170.43
2018-07-10T20:30:54.087Z,102172.42
2018-07-10T20:33:32.547Z,102177.62
2018-07-10T20:36:05.167Z,102172.73
2018-07-10T20:38:34.977Z,102173.31
2018-07-10T20:41:05.093Z,102175.06
2018-07-10T20:43:38.973Z,102176.48
2018-07-10T20:46:07.669Z,102183.48
2018-07-10T20:48:44.181Z,102180.09
2018-07-10T20:51:15.562Z,102183.31
2018-07-10T20:53:56.228Z,102182.90
2018-07-10T20:56:48.323Z,102182.97
2018-07-10T20:59:23.072Z,102187.20
2018-07-10T21:01:55.161Z,102181.88
2018-07-10T21:04:35.718Z,102185.97
2018-07-10T21:07:15.042Z,102189.77
2018-07-10T21:10:01.830Z,102191.23
2018-07-10T21:13:06.772Z,102186.66
2018-07-10T21:15:49.877Z,102199.06
2018-07-10T21:18:32.832Z,102194.27
2018-07-10T21:21:11.713Z,102191.17
2018-07-10T21:25:52.882Z,102198.48
2018-07-10T21:28:41.276Z,102195.19
2018-07-10T21:31:18.000Z,102198.66
2018-07-10T21:34:15.275Z,102201.92
2018-07-10T21:36:58.346Z,102209.11
2018-07-10T21:41:52.993Z,102200.94
2018-07-10T21:44:32.498Z,102206.16
2018-07-10T21:47:06.579Z,102203.76
2018-07-10T21:49:41.298Z,102201.84
2018-07-10T21:52:09.988Z,102196.76
2018-07-10T21:54:38.706Z,102198.22
2018-07-10T21:57:07.359Z,102190.33
2018-07-10T21:59:39.361Z,102192.80
2018-07-10T22:02:09.826Z,102194.44
2018-07-10T22:04:40.424Z,102198.73
2018-07-10T22:07:11.116Z,102194.36
2018-07-10T22:09:40.396Z,102194.21
2018-07-10T22:12:10.538Z,102196.67
2018-07-10T22:14:39.340Z,102195.69
2018-07-10T22:17:19.456Z,102190.14
2018-07-10T22:19:50.182Z,102198.05
2018-07-10T22:22:21.119Z,102193.52
2018-07-10T22:24:50.700Z,102194.27
2018-07-10T22:27:20.083Z,102196.69
2018-07-10T22:29:53.972Z,102195.73
2018-07-10T22:32:29.874Z,102197.56
2018-07-10T22:34:58.527Z,102193.30
2018-07-10T22:37:27.191Z,102199.52
2018-07-10T22:39:55.974Z,102199.89
2018-07-10T22:42:24.758Z,102199.89
2018-07-10T22:44:55.519Z,102196.22
2018-07-10T22:47:29.220Z,102199.16
2018-07-10T22:50:02.276Z,102196.71
2018-07-10T22:52:31.197Z,102205.48
2018-07-10T22:54:59.856Z,102207.63
2018-07-10T22:57:28.562Z,102207.52
2018-07-10T22:59:58.365Z,102208.48
2018-07-10T23:02:27.130Z,102203.47
2018-07-10T23:04:55.754Z,102208.04
2018-07-10T23:07:24.451Z,102207.17
2018-07-10T23:09:53.125Z,102201.34
2018-07-10T23:12:21.977Z,102204.69
2018-07-10T23:14:50.573Z,102204.06
2018-07-10T23:17:19.440Z,102203.95
2018-07-10T23:19:48.103Z,102201.02
2018-07-10T23:22:16.749Z,102204.05
2018-07-10T23:24:45.437Z,102209.28
2018-07-10T23:27:14.066Z,102214.23
2018-07-10T23:29:42.755Z,102214.93
2018-07-10T23:32:11.407Z,102217.95
2018-07-10T23:34:40.377Z,102218.05
2018-07-10T23:37:13.710Z,102212.92
2018-07-10T23:39:47.382Z,102215.94
2018-07-10T23:42:27.133Z,102218.59
2018-07-10T23:44:56.609Z,102219.95
2018-07-10T23:47:32.032Z,102221.42
2018-07-10T23:50:06.487Z,102214.48
2018-07-10T23:54:49.273Z,102220.78
2018-07-10T23:57:18.206Z,102210.73
2018-07-10T23:59:46.956Z,102217.23
